Time;durP1;ratioP1;P1;durP2;ratioP2;P2;SDS_P1;SDS_P2;PMS_P1;PMS_P2;Temp;Humidity;BMP_temperature;BMP_pressure;BME280_temperature;BME280_humidity;BME280_pressure;Samples;Min_cycle;Max_cycle;Signal;HPM_P1;HPM_P2
2022/05/04 00:00:30;;;;;;;;;;;16.50;65.90;;;;;;2030014;28;20409;-69
2022/05/04 00:01:28;;;;;;;;;;;16.50;66.00;;;;;;2030007;28;19966;-70
2022/05/04 00:02:27;;;;;;;;;;;16.60;66.40;;;;;;2030020;28;19965;-68
2022/05/04 00:03:25;;;;;;;;;;;16.50;66.70;;;;;;2030016;28;20378;-68
2022/05/04 00:04:24;;;;;;;;;;;16.50;67.40;;;;;;2029724;28;20370;-68
2022/05/04 00:05:22;;;;;;;;;;;16.50;67.70;;;;;;2030047;28;19990;-69
2022/05/04 00:06:22;;;;;;;;;;;16.60;68.70;;;;;;2030070;28;19909;-69
2022/05/04 00:07:20;;;;;;;;;;;16.50;70.00;;;;;;2029763;28;19977;-68
2022/05/04 00:08:18;;;;;;;;;;;16.50;70.50;;;;;;2029473;28;20007;-69
2022/05/04 00:09:17;;;;;;;;;;;16.50;70.90;;;;;;2028903;28;19905;-69
2022/05/04 00:10:15;;;;;;;;;;;16.50;70.90;;;;;;2029278;28;20221;-68
2022/05/04 00:11:14;;;;;;;;;;;16.60;65.50;;;;;;2030205;28;20003;-68
2022/05/04 00:12:12;;;;;;;;;;;16.50;64.60;;;;;;2030150;28;19905;-69
2022/05/04 00:13:14;;;;;;;;;;;16.50;64.60;;;;;;2029928;28;20316;-68
2022/05/04 00:14:14;;;;;;;;;;;16.50;64.80;;;;;;2030730;28;19946;-69
2022/05/04 00:15:12;;;;;;;;;;;16.50;64.70;;;;;;2033051;28;19909;-68
2022/05/04 00:16:12;;;;;;;;;;;16.50;64.80;;;;;;2035643;28;19916;-69
2022/05/04 00:17:11;;;;;;;;;;;16.50;65.10;;;;;;2037485;28;19892;-69
2022/05/04 00:18:10;;;;;;;;;;;16.50;66.60;;;;;;2036428;28;19904;-71
2022/05/04 00:19:08;;;;;;;;;;;16.50;65.90;;;;;;2031005;28;19911;-69
2022/05/04 00:20:07;;;;;;;;;;;16.50;65.90;;;;;;2029972;28;19915;-68
2022/05/04 00:21:07;;;;;;;;;;;16.50;66.60;;;;;;2029772;28;20001;-69
2022/05/04 00:22:08;;;;;;;;;;;16.50;67.30;;;;;;2029755;28;20245;-68
2022/05/04 00:23:07;;;;;;;;;;;16.50;67.30;;;;;;2029605;28;20351;-68
2022/05/04 00:24:05;;;;;;;;;;;16.60;68.20;;;;;;2029590;28;19904;-69
2022/05/04 00:25:04;;;;;;;;;;;16.60;67.80;;;;;;2029758;28;19904;-69
2022/05/04 00:26:03;;;;;;;;;;;16.50;67.40;;;;;;2029598;28;19911;-69
2022/05/04 00:27:02;;;;;;;;;;;16.50;66.30;;;;;;2029799;28;20351;-69
2022/05/04 00:28:02;;;;;;;;;;;16.50;66.10;;;;;;2029769;28;19948;-68
2022/05/04 00:29:01;;;;;;;;;;;16.50;66.60;;;;;;2029420;28;19911;-68
2022/05/04 00:29:59;;;;;;;;;;;16.50;67.10;;;;;;2037258;28;19947;-70
2022/05/04 00:30:58;;;;;;;;;;;16.50;66.40;;;;;;2037297;28;20363;-69
2022/05/04 00:31:56;;;;;;;;;;;16.50;66.30;;;;;;2029019;28;19916;-69
2022/05/04 00:32:54;;;;;;;;;;;16.50;66.00;;;;;;2028999;28;19944;-69
2022/05/04 00:33:54;;;;;;;;;;;16.50;66.30;;;;;;2029619;28;19995;-68
2022/05/04 00:34:52;;;;;;;;;;;16.50;66.60;;;;;;2029411;28;19904;-69
2022/05/04 00:35:51;;;;;;;;;;;16.50;66.50;;;;;;2029544;28;19908;-69
2022/05/04 00:36:50;;;;;;;;;;;16.50;66.40;;;;;;2029500;28;20005;-69
2022/05/04 00:37:49;;;;;;;;;;;16.50;66.70;;;;;;2029469;28;19904;-69
2022/05/04 00:38:47;;;;;;;;;;;16.50;66.60;;;;;;2029525;28;19904;-69
2022/05/04 00:39:47;;;;;;;;;;;16.50;66.60;;;;;;2029602;28;20262;-70
2022/05/04 00:40:45;;;;;;;;;;;16.50;66.90;;;;;;2029306;28;19930;-69
2022/05/04 00:41:44;;;;;;;;;;;16.50;66.80;;;;;;2029370;28;19947;-69
2022/05/04 00:42:42;;;;;;;;;;;16.50;67.00;;;;;;2029549;28;19908;-69
2022/05/04 00:43:41;;;;;;;;;;;16.50;67.10;;;;;;2028881;28;19908;-68
2022/05/04 00:44:41;;;;;;;;;;;16.50;67.30;;;;;;2028686;28;19904;-69
2022/05/04 00:45:40;;;;;;;;;;;16.50;67.70;;;;;;2029749;28;20268;-69
2022/05/04 00:46:38;;;;;;;;;;;16.50;68.20;;;;;;2029450;28;19981;-69
2022/05/04 00:47:38;;;;;;;;;;;16.40;68.40;;;;;;2029308;28;19904;-68
2022/05/04 00:48:36;;;;;;;;;;;16.50;68.90;;;;;;2029372;28;20318;-69
2022/05/04 00:49:35;;;;;;;;;;;16.50;67.90;;;;;;2029688;28;19904;-69
2022/05/04 00:50:33;;;;;;;;;;;16.50;67.90;;;;;;2029422;28;20368;-69
2022/05/04 00:51:32;;;;;;;;;;;16.50;67.80;;;;;;2029799;28;19920;-69
2022/05/04 00:52:34;;;;;;;;;;;16.50;67.60;;;;;;2029371;28;19998;-69
2022/05/04 00:53:32;;;;;;;;;;;16.50;67.70;;;;;;2029205;28;19914;-69
2022/05/04 00:54:32;;;;;;;;;;;16.50;67.50;;;;;;2029365;28;20287;-68
2022/05/04 00:55:33;;;;;;;;;;;16.50;68.00;;;;;;2029626;28;19909;-69
2022/05/04 00:56:31;;;;;;;;;;;16.50;67.90;;;;;;2028482;28;19943;-68
2022/05/04 00:58:56;;;;;;;;;;;16.50;67.30;;;;;;2029771;28;19904;-68
2022/05/04 00:59:55;;;;;;;;;;;16.50;67.60;;;;;;2029308;28;19908;-68
2022/05/04 01:00:53;;;;;;;;;;;16.40;67.20;;;;;;2029325;28;20298;-68
2022/05/04 01:01:52;;;;;;;;;;;16.40;66.90;;;;;;2029564;28;19905;-68
2022/05/04 01:02:50;;;;;;;;;;;16.50;67.70;;;;;;2029291;28;19927;-69
2022/05/04 01:03:49;;;;;;;;;;;16.40;67.30;;;;;;2029624;28;20002;-68
2022/05/04 01:04:47;;;;;;;;;;;16.50;67.20;;;;;;2029583;28;20073;-68
2022/05/04 01:05:47;;;;;;;;;;;16.50;67.10;;;;;;2029164;28;20296;-69
2022/05/04 01:06:46;;;;;;;;;;;16.40;67.10;;;;;;2029526;28;19904;-68
2022/05/04 01:07:47;;;;;;;;;;;16.40;66.90;;;;;;1994498;28;1007480;-69
2022/05/04 01:08:46;;;;;;;;;;;16.40;67.20;;;;;;2029656;28;19909;-69
2022/05/04 01:09:45;;;;;;;;;;;16.50;67.80;;;;;;2029765;28;19910;-68
2022/05/04 01:10:43;;;;;;;;;;;16.50;67.70;;;;;;2029802;28;19904;-68
2022/05/04 01:11:42;;;;;;;;;;;16.50;68.10;;;;;;2029933;28;20003;-68
2022/05/04 01:12:51;;;;;;;;;;;16.50;68.00;;;;;;2030161;28;20271;-70
2022/05/04 01:13:59;;;;;;;;;;;16.50;68.10;;;;;;2030011;28;20264;-69
2022/05/04 01:14:59;;;;;;;;;;;16.40;68.90;;;;;;2029958;28;19990;-68
2022/05/04 01:15:58;;;;;;;;;;;16.40;68.60;;;;;;2036906;28;19908;-69
2022/05/04 01:16:56;;;;;;;;;;;16.40;68.80;;;;;;2037374;28;20043;-70
2022/05/04 01:17:54;;;;;;;;;;;16.50;68.70;;;;;;2030354;28;20411;-69
2022/05/04 01:18:53;;;;;;;;;;;16.40;68.50;;;;;;2029736;28;19944;-69
2022/05/04 01:19:51;;;;;;;;;;;16.40;69.20;;;;;;2030208;28;19905;-68
2022/05/04 01:20:50;;;;;;;;;;;16.40;69.40;;;;;;2029849;28;19912;-69
2022/05/04 01:21:49;;;;;;;;;;;16.40;68.10;;;;;;2030277;28;20088;-69
2022/05/04 01:22:47;;;;;;;;;;;16.40;67.40;;;;;;2029880;28;20297;-69
2022/05/04 01:23:46;;;;;;;;;;;16.50;67.20;;;;;;2029575;28;19958;-69
2022/05/04 01:24:44;;;;;;;;;;;16.40;66.90;;;;;;2029689;28;20276;-69
2022/05/04 01:25:44;;;;;;;;;;;16.40;67.70;;;;;;2030385;28;20245;-68
2022/05/04 01:26:43;;;;;;;;;;;16.50;67.60;;;;;;2030449;28;19904;-68
2022/05/04 01:27:41;;;;;;;;;;;16.40;68.20;;;;;;2030471;28;19905;-69
2022/05/04 01:28:40;;;;;;;;;;;16.40;67.50;;;;;;2030805;28;19904;-68
2022/05/04 01:29:38;;;;;;;;;;;16.40;68.00;;;;;;2030303;28;19908;-67
2022/05/04 01:30:39;;;;;;;;;;;16.40;68.20;;;;;;2030149;28;20326;-69
2022/05/04 01:31:38;;;;;;;;;;;16.40;68.20;;;;;;2030296;28;19911;-69
2022/05/04 01:32:36;;;;;;;;;;;16.40;67.60;;;;;;2030565;28;19904;-68
2022/05/04 01:33:35;;;;;;;;;;;16.40;67.50;;;;;;2030428;28;20243;-70
2022/05/04 01:34:35;;;;;;;;;;;16.40;68.10;;;;;;2030335;28;20308;-68
2022/05/04 01:35:33;;;;;;;;;;;16.40;68.70;;;;;;2029942;28;19978;-69
2022/05/04 01:36:31;;;;;;;;;;;16.30;68.00;;;;;;2030927;28;19904;-69
2022/05/04 01:37:30;;;;;;;;;;;16.40;67.70;;;;;;2034493;28;19904;-69
2022/05/04 01:38:30;;;;;;;;;;;16.40;68.00;;;;;;2038886;28;19901;-69
2022/05/04 01:39:28;;;;;;;;;;;16.40;68.60;;;;;;2038788;28;19951;-69
2022/05/04 01:40:27;;;;;;;;;;;16.40;68.50;;;;;;2038725;28;19916;-69
2022/05/04 01:42:42;;;;;;;;;;;16.40;67.80;;;;;;2039151;28;19897;-70
2022/05/04 01:43:41;;;;;;;;;;;16.40;68.40;;;;;;2039048;28;19999;-69
2022/05/04 01:44:40;;;;;;;;;;;16.40;68.70;;;;;;2039085;28;19909;-70
2022/05/04 01:45:38;;;;;;;;;;;16.40;68.80;;;;;;2039064;28;19928;-70
2022/05/04 01:46:37;;;;;;;;;;;16.40;69.10;;;;;;2038896;28;19913;-69
2022/05/04 01:47:36;;;;;;;;;;;16.40;69.00;;;;;;2039066;28;19900;-69
2022/05/04 01:48:34;;;;;;;;;;;16.40;68.90;;;;;;2039021;28;19896;-70
2022/05/04 01:49:33;;;;;;;;;;;16.40;68.90;;;;;;2039022;28;20017;-70
2022/05/04 01:50:31;;;;;;;;;;;16.40;68.80;;;;;;2038964;28;19911;-69
2022/05/04 01:51:29;;;;;;;;;;;16.40;69.00;;;;;;2038010;28;19919;-70
2022/05/04 01:52:29;;;;;;;;;;;16.40;68.50;;;;;;2038978;28;19951;-69
2022/05/04 01:53:29;;;;;;;;;;;16.40;69.40;;;;;;2038983;28;19904;-70
2022/05/04 01:54:27;;;;;;;;;;;16.40;69.80;;;;;;2035420;28;19905;-69
2022/05/04 01:55:27;;;;;;;;;;;16.40;69.90;;;;;;2037457;28;19967;-69
2022/05/04 01:56:27;;;;;;;;;;;16.40;69.40;;;;;;2038964;28;19909;-69
2022/05/04 01:57:25;;;;;;;;;;;16.40;69.40;;;;;;2038659;28;19893;-68
2022/05/04 01:58:24;;;;;;;;;;;16.40;69.50;;;;;;2038065;28;19958;-70
2022/05/04 01:59:22;;;;;;;;;;;16.40;69.30;;;;;;2038921;28;19900;-69
2022/05/04 02:00:20;;;;;;;;;;;16.40;68.10;;;;;;2038944;28;19916;-67
2022/05/04 02:01:19;;;;;;;;;;;16.40;68.70;;;;;;2039002;28;19896;-69
2022/05/04 02:02:18;;;;;;;;;;;16.30;68.70;;;;;;2038885;28;19896;-69
2022/05/04 02:03:16;;;;;;;;;;;16.40;69.00;;;;;;2039102;28;19925;-69
2022/05/04 02:04:15;;;;;;;;;;;16.40;69.40;;;;;;2038814;28;19892;-69
2022/05/04 02:05:16;;;;;;;;;;;16.40;69.70;;;;;;2038743;28;19909;-69
2022/05/04 02:06:14;;;;;;;;;;;16.40;69.30;;;;;;2038887;28;19929;-70
2022/05/04 02:07:13;;;;;;;;;;;16.40;67.80;;;;;;2038278;28;19934;-69
2022/05/04 02:08:12;;;;;;;;;;;16.40;68.30;;;;;;2038712;28;19970;-68
2022/05/04 02:09:10;;;;;;;;;;;16.40;68.00;;;;;;2037384;28;19915;-68
2022/05/04 02:10:09;;;;;;;;;;;16.40;67.80;;;;;;2038389;28;19892;-69
2022/05/04 02:11:08;;;;;;;;;;;16.40;67.60;;;;;;2038258;28;19916;-69
2022/05/04 02:12:07;;;;;;;;;;;16.40;67.20;;;;;;2038021;28;19920;-69
2022/05/04 02:13:05;;;;;;;;;;;16.40;67.10;;;;;;2045310;28;19896;-69
2022/05/04 02:14:04;;;;;;;;;;;16.30;66.10;;;;;;2046586;28;19908;-70
2022/05/04 02:15:03;;;;;;;;;;;16.30;65.10;;;;;;2038983;28;19896;-70
2022/05/04 02:16:02;;;;;;;;;;;16.30;64.80;;;;;;2038448;28;19944;-69
2022/05/04 02:17:00;;;;;;;;;;;16.30;64.50;;;;;;2038375;28;19896;-68
2022/05/04 02:17:59;;;;;;;;;;;16.30;64.90;;;;;;2038267;28;19892;-69
2022/05/04 02:18:58;;;;;;;;;;;16.30;65.30;;;;;;2038714;28;19896;-68
2022/05/04 02:19:56;;;;;;;;;;;16.30;65.10;;;;;;2038521;28;19955;-68
2022/05/04 02:20:54;;;;;;;;;;;16.30;65.20;;;;;;2038506;28;19892;-68
2022/05/04 02:21:53;;;;;;;;;;;16.40;65.60;;;;;;2038733;28;19938;-69
2022/05/04 02:22:52;;;;;;;;;;;16.30;65.40;;;;;;2038498;28;19924;-68
2022/05/04 02:23:51;;;;;;;;;;;16.30;64.60;;;;;;2038697;28;19960;-69
2022/05/04 02:24:49;;;;;;;;;;;16.30;65.20;;;;;;2038575;28;19920;-69
2022/05/04 02:25:47;;;;;;;;;;;16.30;65.10;;;;;;2038660;28;19892;-68
2022/05/04 02:26:46;;;;;;;;;;;16.30;65.00;;;;;;2038496;28;19892;-68
2022/05/04 02:27:44;;;;;;;;;;;16.30;65.60;;;;;;2038743;28;19897;-69
2022/05/04 02:28:43;;;;;;;;;;;16.30;65.70;;;;;;2038723;28;19904;-69
2022/05/04 02:29:41;;;;;;;;;;;16.30;65.80;;;;;;2038530;28;19971;-69
2022/05/04 02:30:40;;;;;;;;;;;16.30;66.00;;;;;;2038471;28;19892;-68
2022/05/04 02:31:38;;;;;;;;;;;16.30;66.20;;;;;;2038157;28;20319;-70
2022/05/04 02:32:37;;;;;;;;;;;16.30;66.00;;;;;;2038590;28;19900;-69
2022/05/04 02:33:37;;;;;;;;;;;16.30;66.20;;;;;;2038431;28;19892;-69
2022/05/04 02:37:54;;;;;;;;;;;16.30;66.50;;;;;;2037789;28;19904;-69
2022/05/04 02:38:35;;;;;;;;;;;16.30;66.50;;;;;;2029256;28;19967;-69
2022/05/04 02:39:33;;;;;;;;;;;16.30;65.70;;;;;;2029129;28;19905;-69
2022/05/04 02:40:33;;;;;;;;;;;16.30;66.50;;;;;;2029262;28;19915;-69
2022/05/04 02:41:32;;;;;;;;;;;16.30;66.20;;;;;;2029231;28;19908;-69
2022/05/04 02:42:31;;;;;;;;;;;16.30;66.00;;;;;;2029160;28;19911;-70
2022/05/04 02:43:29;;;;;;;;;;;16.30;66.00;;;;;;2029165;28;19912;-69
2022/05/04 02:44:28;;;;;;;;;;;16.30;66.10;;;;;;2029058;28;19904;-68
2022/05/04 02:45:27;;;;;;;;;;;16.30;65.90;;;;;;2029042;28;20382;-68
2022/05/04 02:46:30;;;;;;;;;;;16.30;66.00;;;;;;2029143;28;19974;-68
2022/05/04 02:47:28;;;;;;;;;;;16.30;65.90;;;;;;2029210;28;19916;-69
2022/05/04 02:48:28;;;;;;;;;;;16.30;66.20;;;;;;2029182;28;19956;-69
2022/05/04 02:49:27;;;;;;;;;;;16.30;66.00;;;;;;2029002;28;19912;-69
2022/05/04 02:50:26;;;;;;;;;;;16.30;66.00;;;;;;2029075;28;19905;-68
2022/05/04 02:51:24;;;;;;;;;;;16.30;66.50;;;;;;2029070;28;19950;-69
2022/05/04 02:52:22;;;;;;;;;;;16.30;66.10;;;;;;2028352;28;19904;-68
2022/05/04 02:53:21;;;;;;;;;;;16.30;66.50;;;;;;2028188;28;19908;-69
2022/05/04 02:54:21;;;;;;;;;;;16.30;66.50;;;;;;2028919;28;19915;-68
2022/05/04 02:55:19;;;;;;;;;;;16.20;66.60;;;;;;2028893;28;19915;-69
2022/05/04 02:56:18;;;;;;;;;;;16.30;66.70;;;;;;2036592;28;20280;-69
2022/05/04 02:57:16;;;;;;;;;;;16.30;66.60;;;;;;2036448;28;19907;-68
2022/05/04 02:58:14;;;;;;;;;;;16.30;66.60;;;;;;2033771;28;19904;-70
2022/05/04 02:59:14;;;;;;;;;;;16.30;66.70;;;;;;2035647;28;19904;-69
2022/05/04 03:00:13;;;;;;;;;;;16.30;66.20;;;;;;2037723;28;19979;-69
2022/05/04 03:02:33;;;;;;;;;;;16.30;66.40;;;;;;2037496;28;19974;-68
2022/05/04 03:03:31;;;;;;;;;;;16.30;66.30;;;;;;2030235;28;19999;-69
2022/05/04 03:04:29;;;;;;;;;;;16.30;66.40;;;;;;2029011;28;19911;-69
2022/05/04 03:05:28;;;;;;;;;;;16.30;66.30;;;;;;2028725;28;19946;-69
2022/05/04 03:06:28;;;;;;;;;;;16.30;66.40;;;;;;2029334;28;20303;-69
2022/05/04 03:07:27;;;;;;;;;;;16.30;66.70;;;;;;2029410;28;20326;-69
2022/05/04 03:08:25;;;;;;;;;;;16.30;66.60;;;;;;2029036;28;19904;-69
2022/05/04 03:09:23;;;;;;;;;;;16.30;66.50;;;;;;2029234;28;19966;-68
2022/05/04 03:10:22;;;;;;;;;;;16.30;66.90;;;;;;2028291;28;19988;-68
2022/05/04 03:12:39;;;;;;;;;;;16.20;66.70;;;;;;2028940;28;19905;-69
2022/05/04 03:13:37;;;;;;;;;;;16.20;67.10;;;;;;2029229;28;19905;-68
2022/05/04 03:14:36;;;;;;;;;;;16.20;66.70;;;;;;2028975;28;20328;-69
2022/05/04 03:15:34;;;;;;;;;;;16.20;66.90;;;;;;2028177;28;19909;-69
2022/05/04 03:16:36;;;;;;;;;;;16.30;66.90;;;;;;2028453;28;19909;-69
2022/05/04 03:17:35;;;;;;;;;;;16.20;66.90;;;;;;2029207;28;20260;-69
2022/05/04 03:18:33;;;;;;;;;;;16.20;66.60;;;;;;2029088;28;19911;-69
2022/05/04 03:19:31;;;;;;;;;;;16.20;66.40;;;;;;2029106;28;19948;-69
2022/05/04 03:20:30;;;;;;;;;;;16.20;66.60;;;;;;2028876;28;20367;-69
2022/05/04 03:21:29;;;;;;;;;;;16.20;66.90;;;;;;2028890;28;20150;-69
2022/05/04 03:22:29;;;;;;;;;;;16.20;66.90;;;;;;2028790;28;20387;-68
2022/05/04 03:23:28;;;;;;;;;;;16.20;66.60;;;;;;2028743;28;19939;-68
2022/05/04 03:24:26;;;;;;;;;;;16.20;66.70;;;;;;2028673;28;19912;-69
2022/05/04 03:25:26;;;;;;;;;;;16.20;66.80;;;;;;2028823;28;19904;-68
2022/05/04 03:26:24;;;;;;;;;;;16.20;67.10;;;;;;2028748;28;19954;-68
2022/05/04 03:27:23;;;;;;;;;;;16.20;66.90;;;;;;2028649;28;20003;-68
2022/05/04 03:28:21;;;;;;;;;;;16.10;66.40;;;;;;2028734;28;19909;-69
2022/05/04 03:29:20;;;;;;;;;;;16.20;66.40;;;;;;2028744;28;19910;-68
2022/05/04 03:30:18;;;;;;;;;;;16.20;67.10;;;;;;2028683;28;20293;-69
2022/05/04 03:31:17;;;;;;;;;;;16.20;66.70;;;;;;2028714;28;19904;-70
2022/05/04 03:32:15;;;;;;;;;;;16.20;66.90;;;;;;2029040;28;19911;-69
2022/05/04 03:33:14;;;;;;;;;;;16.20;66.70;;;;;;2028754;28;19951;-69
2022/05/04 03:34:12;;;;;;;;;;;16.20;66.80;;;;;;2027947;28;20348;-69
2022/05/04 03:35:11;;;;;;;;;;;16.20;67.20;;;;;;2028150;28;19968;-69
2022/05/04 03:36:10;;;;;;;;;;;16.20;66.80;;;;;;2028792;28;20046;-69
2022/05/04 03:37:09;;;;;;;;;;;16.20;66.70;;;;;;2028703;28;20356;-69
2022/05/04 03:38:07;;;;;;;;;;;16.20;66.50;;;;;;2028687;28;20414;-69
2022/05/04 03:39:07;;;;;;;;;;;16.20;66.50;;;;;;2028530;28;19912;-69
2022/05/04 03:40:07;;;;;;;;;;;16.20;66.70;;;;;;2030252;28;19904;-68
2022/05/04 03:41:05;;;;;;;;;;;16.20;66.60;;;;;;2028996;28;19912;-68
2022/05/04 03:42:04;;;;;;;;;;;16.20;66.60;;;;;;2028782;28;19904;-68
2022/05/04 03:43:02;;;;;;;;;;;16.20;66.70;;;;;;2027954;28;19904;-69
2022/05/04 03:44:01;;;;;;;;;;;16.20;66.10;;;;;;2028218;28;20013;-69
2022/05/04 03:44:59;;;;;;;;;;;16.20;66.50;;;;;;2028589;28;20404;-69
2022/05/04 03:46:20;;;;;;;;;;;16.20;66.40;;;;;;2028010;28;19954;-68
2022/05/04 03:47:19;;;;;;;;;;;16.20;66.50;;;;;;2028390;28;20331;-70
2022/05/04 03:48:17;;;;;;;;;;;16.20;66.10;;;;;;2028534;28;20253;-68
2022/05/04 03:49:19;;;;;;;;;;;16.20;66.30;;;;;;2028645;28;19912;-68
2022/05/04 03:50:18;;;;;;;;;;;16.20;66.20;;;;;;2028560;28;20276;-69
2022/05/04 03:51:19;;;;;;;;;;;16.20;66.00;;;;;;2028675;28;19943;-69
2022/05/04 03:52:17;;;;;;;;;;;16.20;66.20;;;;;;2028612;28;19905;-69
2022/05/04 03:53:16;;;;;;;;;;;16.20;66.40;;;;;;2028751;28;20359;-69
2022/05/04 03:54:16;;;;;;;;;;;16.20;66.40;;;;;;2028618;28;19908;-68
2022/05/04 03:55:14;;;;;;;;;;;16.20;66.90;;;;;;2028419;28;19909;-69
2022/05/04 03:56:13;;;;;;;;;;;16.20;66.60;;;;;;2028606;28;19956;-69
2022/05/04 03:57:11;;;;;;;;;;;16.10;66.50;;;;;;2028590;28;19908;-69
2022/05/04 03:58:10;;;;;;;;;;;16.20;67.30;;;;;;2028511;28;20439;-69
2022/05/04 03:59:09;;;;;;;;;;;16.20;67.30;;;;;;2030104;28;20003;-69
2022/05/04 04:00:09;;;;;;;;;;;16.20;67.40;;;;;;2030271;28;20341;-69
2022/05/04 04:01:08;;;;;;;;;;;16.20;67.40;;;;;;2030196;28;19995;-68
2022/05/04 04:02:06;;;;;;;;;;;16.20;67.70;;;;;;2030000;28;19904;-68
2022/05/04 04:03:05;;;;;;;;;;;16.20;67.30;;;;;;2030163;28;19999;-69
2022/05/04 04:04:03;;;;;;;;;;;16.20;67.10;;;;;;2037386;28;19912;-68
2022/05/04 04:05:02;;;;;;;;;;;16.20;67.30;;;;;;2037624;28;19904;-68
2022/05/04 04:06:01;;;;;;;;;;;16.20;67.50;;;;;;2030743;28;20394;-70
2022/05/04 04:07:00;;;;;;;;;;;16.20;67.10;;;;;;2029842;28;19905;-68
2022/05/04 04:07:58;;;;;;;;;;;16.20;67.20;;;;;;2030242;28;20413;-68
2022/05/04 04:08:57;;;;;;;;;;;16.20;67.40;;;;;;2030072;28;20220;-68
2022/05/04 04:09:55;;;;;;;;;;;16.20;67.40;;;;;;2030060;28;20280;-68
2022/05/04 04:10:54;;;;;;;;;;;16.20;67.70;;;;;;2029987;28;20044;-68
2022/05/04 04:11:52;;;;;;;;;;;16.20;67.60;;;;;;2030079;28;20004;-68
2022/05/04 04:12:50;;;;;;;;;;;16.20;67.80;;;;;;2030102;28;20237;-68
2022/05/04 04:13:49;;;;;;;;;;;16.20;67.70;;;;;;2029928;28;19950;-68
2022/05/04 04:14:47;;;;;;;;;;;16.20;67.70;;;;;;2029983;28;19905;-69
2022/05/04 04:15:46;;;;;;;;;;;16.20;66.80;;;;;;2029805;28;19904;-69
2022/05/04 04:16:45;;;;;;;;;;;16.20;66.80;;;;;;2037467;28;19908;-69
2022/05/04 04:17:43;;;;;;;;;;;16.20;66.60;;;;;;2037530;28;19979;-68
2022/05/04 04:18:42;;;;;;;;;;;16.20;66.70;;;;;;2030660;28;19955;-68
2022/05/04 04:19:40;;;;;;;;;;;16.20;67.20;;;;;;2029870;28;20344;-70
2022/05/04 04:21:56;;;;;;;;;;;16.20;66.20;;;;;;2030032;28;20332;-69
2022/05/04 04:22:54;;;;;;;;;;;16.20;66.30;;;;;;2030044;28;19954;-69
2022/05/04 04:23:53;;;;;;;;;;;16.20;66.20;;;;;;2030053;28;19905;-69
2022/05/04 04:24:51;;;;;;;;;;;16.30;66.40;;;;;;2029895;28;19908;-68
2022/05/04 04:25:49;;;;;;;;;;;16.20;66.90;;;;;;2029770;28;20463;-68
2022/05/04 04:26:48;;;;;;;;;;;16.20;67.20;;;;;;2029802;28;19908;-68
2022/05/04 04:27:46;;;;;;;;;;;16.20;66.90;;;;;;2030071;28;19910;-69
2022/05/04 04:28:45;;;;;;;;;;;16.20;67.10;;;;;;2030235;28;19960;-68
2022/05/04 04:29:43;;;;;;;;;;;16.20;67.20;;;;;;2029935;28;20283;-69
2022/05/04 04:30:41;;;;;;;;;;;16.20;66.40;;;;;;2029926;28;20221;-68
2022/05/04 04:31:40;;;;;;;;;;;16.20;66.70;;;;;;2030066;28;19936;-70
2022/05/04 04:32:39;;;;;;;;;;;16.20;66.50;;;;;;2029916;28;20313;-69
2022/05/04 04:33:38;;;;;;;;;;;16.20;66.70;;;;;;2029814;28;20343;-69
2022/05/04 04:34:36;;;;;;;;;;;16.20;67.10;;;;;;2029918;28;19947;-70
2022/05/04 04:35:34;;;;;;;;;;;16.20;67.80;;;;;;2029142;28;19909;-69
2022/05/04 04:36:33;;;;;;;;;;;16.20;67.40;;;;;;2029129;28;19905;-69
2022/05/04 04:37:32;;;;;;;;;;;16.20;67.30;;;;;;2029843;28;19931;-70
2022/05/04 04:38:30;;;;;;;;;;;16.20;67.20;;;;;;2037185;28;19908;-68
2022/05/04 04:39:29;;;;;;;;;;;16.20;68.00;;;;;;2037216;28;19904;-68
2022/05/04 04:40:27;;;;;;;;;;;16.20;67.50;;;;;;2030362;28;19904;-68
2022/05/04 04:41:30;;;;;;;;;;;16.10;67.70;;;;;;2029762;28;19987;-68
2022/05/04 04:42:28;;;;;;;;;;;16.20;67.80;;;;;;2029250;28;19999;-70
2022/05/04 04:43:26;;;;;;;;;;;16.20;67.10;;;;;;2029359;28;20355;-68
2022/05/04 04:44:25;;;;;;;;;;;16.20;67.20;;;;;;2029752;28;19947;-68
2022/05/04 04:45:24;;;;;;;;;;;16.20;67.40;;;;;;2037558;28;19908;-69
2022/05/04 04:46:22;;;;;;;;;;;16.20;67.30;;;;;;2029037;28;19908;-69
2022/05/04 04:47:21;;;;;;;;;;;16.20;67.10;;;;;;2029179;28;20410;-69
2022/05/04 04:48:21;;;;;;;;;;;16.20;66.70;;;;;;2029945;28;19911;-69
2022/05/04 04:49:19;;;;;;;;;;;16.20;67.20;;;;;;2029751;28;20003;-69
2022/05/04 04:50:17;;;;;;;;;;;16.20;67.60;;;;;;2029262;28;19927;-69
2022/05/04 04:51:16;;;;;;;;;;;16.20;67.20;;;;;;2029291;28;19958;-69
2022/05/04 04:52:15;;;;;;;;;;;16.20;67.30;;;;;;2029878;28;20259;-69
2022/05/04 04:53:14;;;;;;;;;;;16.30;67.90;;;;;;2029868;28;19911;-69
2022/05/04 04:54:12;;;;;;;;;;;16.20;67.80;;;;;;2029817;28;20274;-69
2022/05/04 04:55:12;;;;;;;;;;;16.20;67.60;;;;;;2029741;28;19912;-69
2022/05/04 04:56:10;;;;;;;;;;;16.20;67.20;;;;;;2030639;28;20287;-69
2022/05/04 04:57:09;;;;;;;;;;;16.20;67.80;;;;;;2029990;28;19904;-68
2022/05/04 04:58:10;;;;;;;;;;;16.20;67.50;;;;;;2030048;28;19912;-67
2022/05/04 04:59:08;;;;;;;;;;;16.20;67.20;;;;;;2029941;28;20338;-68
2022/05/04 05:00:07;;;;;;;;;;;16.20;67.20;;;;;;2037132;28;20405;-68
2022/05/04 05:01:05;;;;;;;;;;;16.20;67.60;;;;;;2037221;28;19911;-69
2022/05/04 05:02:04;;;;;;;;;;;16.20;67.20;;;;;;2029294;28;19974;-69
2022/05/04 05:03:03;;;;;;;;;;;16.20;67.40;;;;;;2029059;28;19904;-69
2022/05/04 05:04:01;;;;;;;;;;;16.20;67.40;;;;;;2029474;28;20252;-67
2022/05/04 05:05:00;;;;;;;;;;;16.30;67.60;;;;;;2029595;28;19965;-67
2022/05/04 05:05:58;;;;;;;;;;;16.30;68.10;;;;;;2029697;28;19964;-67
2022/05/04 05:06:57;;;;;;;;;;;16.20;68.50;;;;;;2037042;28;19913;-70
2022/05/04 05:07:56;;;;;;;;;;;16.30;67.90;;;;;;2037141;28;20045;-68
2022/05/04 05:08:55;;;;;;;;;;;16.30;67.80;;;;;;2030389;28;19905;-68
2022/05/04 05:09:54;;;;;;;;;;;16.20;67.80;;;;;;2028804;28;19911;-68
2022/05/04 05:10:52;;;;;;;;;;;16.30;68.00;;;;;;2029388;28;19904;-69
2022/05/04 05:11:51;;;;;;;;;;;16.30;67.50;;;;;;2029925;28;19908;-68
2022/05/04 05:12:51;;;;;;;;;;;16.30;68.10;;;;;;2037106;28;19908;-68
2022/05/04 05:16:24;;;;;;;;;;;16.30;67.80;;;;;;2029646;28;20358;-70
2022/05/04 05:17:22;;;;;;;;;;;16.20;67.70;;;;;;2029596;28;19912;-68
2022/05/04 05:18:21;;;;;;;;;;;16.20;68.50;;;;;;2030075;28;19916;-70
2022/05/04 05:19:20;;;;;;;;;;;16.20;67.80;;;;;;2029872;28;19943;-68
2022/05/04 05:20:18;;;;;;;;;;;16.20;67.70;;;;;;2029768;28;19904;-69
2022/05/04 05:21:17;;;;;;;;;;;16.30;67.90;;;;;;2029535;28;19912;-69
2022/05/04 05:22:16;;;;;;;;;;;16.30;67.70;;;;;;2029622;28;19987;-69
2022/05/04 05:23:14;;;;;;;;;;;16.30;67.60;;;;;;2029796;28;19911;-69
2022/05/04 05:24:13;;;;;;;;;;;16.30;67.60;;;;;;2029599;28;20007;-69
2022/05/04 05:25:11;;;;;;;;;;;16.30;67.50;;;;;;2029063;28;19915;-69
2022/05/04 05:26:09;;;;;;;;;;;16.30;67.60;;;;;;2029365;28;20386;-69
2022/05/04 05:27:09;;;;;;;;;;;16.30;67.20;;;;;;2029760;28;19912;-68
2022/05/04 05:28:07;;;;;;;;;;;16.30;67.60;;;;;;2029715;28;19904;-70
2022/05/04 05:29:06;;;;;;;;;;;16.30;68.10;;;;;;2029582;28;20244;-68
2022/05/04 05:30:04;;;;;;;;;;;16.30;68.20;;;;;;2029812;28;19904;-68
2022/05/04 05:31:03;;;;;;;;;;;16.30;68.00;;;;;;2029815;28;19904;-70
2022/05/04 05:32:01;;;;;;;;;;;16.40;67.80;;;;;;2029915;28;19908;-69
2022/05/04 05:33:00;;;;;;;;;;;16.40;67.80;;;;;;2029541;28;19962;-69
2022/05/04 05:33:58;;;;;;;;;;;16.40;68.10;;;;;;2029413;28;19904;-69
2022/05/04 05:34:57;;;;;;;;;;;16.40;68.30;;;;;;2029525;28;19916;-69
2022/05/04 05:35:55;;;;;;;;;;;16.40;68.30;;;;;;2030108;28;20003;-68
2022/05/04 05:36:54;;;;;;;;;;;16.40;68.20;;;;;;2029613;28;19909;-68
2022/05/04 05:37:52;;;;;;;;;;;16.40;68.10;;;;;;2029711;28;20328;-70
2022/05/04 05:38:53;;;;;;;;;;;16.40;67.90;;;;;;2029666;28;19928;-68
2022/05/04 05:39:51;;;;;;;;;;;16.40;67.70;;;;;;2031388;28;19968;-68
2022/05/04 05:40:50;;;;;;;;;;;16.40;68.00;;;;;;2035729;28;19926;-68
2022/05/04 05:41:48;;;;;;;;;;;16.40;68.40;;;;;;2037284;28;19905;-68
2022/05/04 05:42:47;;;;;;;;;;;16.40;67.60;;;;;;2036949;28;19915;-68
2022/05/04 05:43:45;;;;;;;;;;;16.40;68.00;;;;;;2034462;28;19905;-69
2022/05/04 05:44:44;;;;;;;;;;;16.40;68.80;;;;;;2034637;28;19927;-69
2022/05/04 05:45:42;;;;;;;;;;;16.40;68.20;;;;;;2035818;28;19964;-69
2022/05/04 05:46:40;;;;;;;;;;;16.40;69.50;;;;;;2031802;28;20006;-69
2022/05/04 05:47:40;;;;;;;;;;;16.40;68.00;;;;;;2029553;28;19911;-70
2022/05/04 05:48:39;;;;;;;;;;;16.40;69.00;;;;;;2029067;28;19940;-70
2022/05/04 05:49:37;;;;;;;;;;;16.50;70.00;;;;;;2029435;28;19904;-69
2022/05/04 05:50:36;;;;;;;;;;;16.40;69.30;;;;;;2028667;28;19904;-69
2022/05/04 05:51:35;;;;;;;;;;;16.40;69.10;;;;;;2029044;28;20266;-68
2022/05/04 05:52:34;;;;;;;;;;;16.40;68.80;;;;;;2029757;28;19905;-68
2022/05/04 05:53:34;;;;;;;;;;;16.40;68.30;;;;;;2029726;28;19962;-70
2022/05/04 05:54:33;;;;;;;;;;;16.40;69.00;;;;;;2029759;28;19978;-69